Aviation Digital Data Service (ADDS)

Output produced by METARs form (0614 UTC 31 August 2014)
found at http://aviationweather.gov/adds/metars/
 
KLGA 310540Z 3106/0106 21008KT P6SM SCT015 BKN045 
     TEMPO 3108/3110 BKN015 
     FM311000 21008KT P6SM BKN015 
     FM311500 20011G16KT P6SM SCT020 BKN040 
     FM311900 20014G20KT P6SM SCT040 SCT080 BKN150 
     FM312200 20010KT 4SM SHRA BR SCT040 BKN080 
     PROB30 3122/0104 TSRA BKN040CB 
     FM010400 23008KT 4SM SHRA BR FEW025 BKN040